Latest Coastal Weather Observations for Pirlangimpi (Garden Point)

IDD60701

Issued at 10:55 pm CST Thursday 31 July 2014 (issued every 10 minutes, with the page automatically refreshed every 10 minutes)

About coastal observations | Map of coastal stations | Coastal observations for NT | Marine services | Other Formats
Station Details ID: 014142 Name: PIRLANGIMPI AIRPORT Lat: -11.40 Lon: 130.42 Height: 18.3 m
Data from the previous 72 hours. | See also: Recent months at Pirlangimpi (Garden Point)
Date/Time
CST
Temp

°C
Wind Pressure Rain
since 9am
mm
Weather Cloud Vis
km
Sea
Height
m
Swell
Dir
 
Speed
knots
Gust
knots
hPa Trend Height
m
Period
s
Dir
31/10:30pm 22.6 NE 1 2 1013.4 - 0.0 - - - - - - -
31/10:00pm 23.1 NNE 1 2 1013.5 - 0.0 - - - - - - -
31/09:30pm 23.3 CALM 0 0 1013.1 - 0.0 - - - - - - -
31/09:00pm 23.7 ENE 2 4 1012.7 - 0.0 - - - - - - -
31/08:30pm 24.1 NE 3 6 1012.4 - 0.0 - - - - - - -
31/08:00pm 24.4 ENE 3 5 1012.2 - 0.0 - - - - - - -
31/07:30pm 25.1 NE 3 5 1011.9 - 0.0 - - - - - - -
31/07:00pm 25.6 NE 3 5 1012.0 - 0.0 - - - - - - -
31/06:30pm 27.3 ENE 4 6 1011.9 - 0.0 - - - - - - -
31/06:00pm 28.6 ENE 5 9 1011.7 - 0.0 - - - - - - -
31/05:30pm 30.0 ENE 5 8 1011.6 - 0.0 - - - - - - -
31/05:00pm 31.1 NNE 3 8 1011.4 - 0.0 - - - - - - -
31/04:30pm 32.3 NE 5 8 1011.2 - 0.0 - - - - - - -
31/04:00pm 33.5 ENE 7 12 1011.3 - 0.0 - - - - - - -
31/03:30pm 34.1 SE 3 6 1011.2 - 0.0 - - - - - - -
31/03:00pm 34.2 ENE 6 9 1011.3 - 0.0 - - - - - - -
31/02:30pm 34.3 ENE 5 10 1011.6 - 0.0 - - - - - - -
31/02:00pm 33.6 E 7 14 1012.1 - 0.0 - - - - - - -
31/01:30pm 33.8 E 8 13 1012.5 - 0.0 - - - - - - -
31/01:00pm 32.9 ESE 6 11 1013.2 - 0.0 - - - - - - -
31/12:30pm 32.3 E 7 14 1013.6 - 0.0 - - - - - - -
31/12:00pm 31.7 ENE 6 10 1014.2 - 0.0 - - - - - - -
31/11:30am 30.3 E 7 11 1014.9 - 0.0 - - - - - - -
31/11:00am 31.0 ENE 8 11 1015.3 - 0.0 - - - - - - -
31/10:30am 30.0 ENE 8 13 1015.4 - 0.0 - - - - - - -
31/10:00am 28.4 ENE 8 12 1015.4 - 0.0 - - - - - - -
31/09:30am 27.6 E 7 10 1015.4 - 0.0 - - - - - - -
31/09:00am 25.8 E 4 7 1015.2 - 0.0 - - - - - - -
31/08:30am 24.3 ESE 3 7 1015.3 - 0.0 - - - - - - -
31/08:00am 23.1 SE 2 4 1015.2 - 0.0 - - - - - - -
31/07:30am 22.5 SE 3 4 1015.1 - 0.0 - - - - - - -
31/07:00am 22.2 SE 2 3 1015.0 - 0.0 - - - - - - -
31/06:30am 22.1 SE 2 3 1014.7 - 0.0 - - - - - - -
31/06:00am 22.2 SE 2 3 1014.7 - 0.0 - - - - - - -
31/05:30am 22.6 SSE 1 2 1014.6 - 0.0 - - - - - - -
31/05:00am 22.9 SSE 2 3 1014.4 - 0.0 - - - - - - -
31/04:30am 23.3 S 2 3 1014.3 - 0.0 - - - - - - -
31/04:00am 23.6 SSE 3 5 1014.4 - 0.0 - - - - - - -
31/03:30am 23.9 S 2 4 1014.2 - 0.0 - - - - - - -
31/03:00am 23.7 S 3 4 1014.2 - 0.0 - - - - - - -
31/02:30am 23.4 SSE 2 3 1014.4 - 0.0 - - - - - - -
31/02:00am 23.3 ESE 1 3 1014.4 - 0.0 - - - - - - -
31/01:30am 23.6 ENE 4 7 1014.1 - 0.0 - - - - - - -
31/01:00am 23.6 ENE 5 9 1014.2 - 0.0 - - - - - - -
31/12:30am 23.7 NE 6 10 1013.9 - 0.0 - - - - - - -
31/12:00am 23.6 NE 5 8 1013.9 - 0.0 - - - - - - -
 
Date/Time
CST
Temp

°C
Wind Pressure Rain
since 9am
mm
Weather Cloud Vis
km
Sea
Height
m
Swell
Dir
 
Speed
knots
Gust
knots
hPa Trend Height
m
Period
s
Dir
30/11:30pm 23.6 NE 5 8 1014.1 - 0.0 - - - - - - -
30/11:00pm 23.4 NE 3 5 1014.3 - 0.0 - - - - - - -
30/10:30pm 23.5 NNE 2 5 1014.4 - 0.0 - - - - - - -
30/10:00pm 23.7 NE 2 4 1014.7 - 0.0 - - - - - - -
30/09:30pm 24.0 NE 2 5 1014.6 - 0.0 - - - - - - -
30/09:00pm 24.0 NE 2 4 1014.6 - 0.0 - - - - - - -
30/08:30pm 24.5 NE 2 4 1014.5 - 0.0 - - - - - - -
30/08:00pm 24.5 NE 3 7 1014.1 - 0.0 - - - - - - -
30/07:30pm 24.6 NE 2 3 1013.6 - 0.0 - - - - - - -
30/07:00pm 25.4 NE 2 4 1013.4 - 0.0 - - - - - - -
30/06:30pm 26.7 NE 5 8 1012.9 - 0.0 - - - - - - -
30/06:00pm 27.8 ENE 6 9 1012.8 - 0.0 - - - - - - -
30/05:30pm 28.9 ENE 6 10 1012.4 - 0.0 - - - - - - -
30/05:00pm 30.5 ENE 9 14 1012.4 - 0.0 - - - - - - -
30/04:30pm 31.9 ENE 7 12 1012.2 - 0.0 - - - - - - -
30/04:00pm 33.0 ENE 8 12 1012.0 - 0.0 - - - - - - -
30/03:30pm 33.1 E 8 14 1011.9 - 0.0 - - - - - - -
30/03:00pm 32.9 ENE 9 14 1011.9 - 0.0 - - - - - - -
30/02:30pm 33.4 ENE 8 16 1012.3 - 0.0 - - - - - - -
30/02:00pm 33.1 E 9 13 1012.8 - 0.0 - - - - - - -
30/01:30pm 32.9 E 10 15 1013.1 - 0.0 - - - - - - -
30/01:00pm 33.2 E 12 19 1013.6 - 0.0 - - - - - - -
30/12:30pm 32.4 E 9 19 1013.9 - 0.0 - - - - - - -
30/12:00pm 31.6 E 9 16 1014.5 - 0.0 - - - - - - -
30/11:30am 30.4 E 10 16 1015.0 - 0.0 - - - - - - -
30/11:00am 30.3 SE 8 12 1015.5 - 0.0 - - - - - - -
30/10:30am 29.0 E 10 16 1015.8 - 0.0 - - - - - - -
30/10:00am 27.8 E 8 11 1016.0 - 0.0 - - - - - - -
30/09:30am 27.2 E 6 10 1016.0 - 0.0 - - - - - - -
30/09:00am 25.4 E 5 8 1015.9 - 0.0 - - - - - - -
30/08:30am 23.5 E 4 5 1015.7 - 0.0 - - - - - - -
30/08:00am 21.9 ESE 2 3 1015.6 - 0.0 - - - - - - -
30/07:30am 21.2 E 2 3 1015.1 - 0.0 - - - - - - -
30/07:00am 21.2 E 2 4 1015.1 - 0.0 - - - - - - -
30/06:30am 21.5 E 3 5 1014.8 - 0.0 - - - - - - -
30/06:00am 21.2 E 2 3 1014.7 - 0.0 - - - - - - -
30/05:30am 21.5 ESE 2 2 1014.6 - 0.0 - - - - - - -
30/05:00am 21.6 SE 1 2 1014.7 - 0.0 - - - - - - -
30/04:30am 22.1 SSE 1 2 1014.4 - 0.0 - - - - - - -
30/04:00am 22.8 SE 2 3 1014.4 - 0.0 - - - - - - -
30/03:30am 23.2 E 4 6 1014.2 - 0.0 - - - - - - -
30/03:00am 23.1 ENE 5 7 1013.9 - 0.0 - - - - - - -
30/02:30am 23.2 ENE 4 6 1014.0 - 0.0 - - - - - - -
30/02:00am 23.5 ENE 5 7 1014.3 - 0.0 - - - - - - -
30/01:30am 23.7 ENE 5 7 1014.2 - 0.0 - - - - - - -
30/01:00am 23.8 ENE 7 10 1014.6 - 0.0 - - - - - - -
30/12:30am 23.4 ENE 6 9 1014.6 - 0.0 - - - - - - -
30/12:00am 23.2 ENE 5 8 1014.7 - 0.0 - - - - - - -
 
Date/Time
CST
Temp

°C
Wind Pressure Rain
since 9am
mm
Weather Cloud Vis
km
Sea
Height
m
Swell
Dir
 
Speed
knots
Gust
knots
hPa Trend Height
m
Period
s
Dir
29/11:30pm 23.3 ENE 4 7 1014.7 - 0.0 - - - - - - -
29/11:00pm 23.4 ENE 5 8 1014.9 - 0.0 - - - - - - -
29/10:30pm 23.4 ENE 4 6 1014.8 - 0.0 - - - - - - -
29/10:00pm 23.6 NE 4 7 1015.0 - 0.0 - - - - - - -
29/09:30pm 23.5 NE 3 6 1015.0 - 0.0 - - - - - - -
29/09:00pm 23.2 NE 3 5 1014.9 - 0.0 - - - - - - -
29/08:30pm 23.5 NE 2 4 1014.6 - 0.0 - - - - - - -
29/08:00pm 24.0 NE 1 2 1014.4 - 0.0 - - - - - - -
29/07:30pm 24.7 NE 2 4 1014.1 - 0.0 - - - - - - -
29/07:00pm 25.5 NNE 2 5 1013.8 - 0.0 - - - - - - -
29/06:30pm 26.6 ENE 5 6 1013.4 - 0.0 - - - - - - -
29/06:00pm 27.7 ENE 6 11 1013.0 - 0.0 - - - - - - -
29/05:30pm 29.1 ENE 6 9 1012.8 - 0.0 - - - - - - -
29/05:00pm 30.7 E 8 14 1012.5 - 0.0 - - - - - - -
29/04:30pm 31.4 E 10 15 1012.2 - 0.0 - - - - - - -
29/04:00pm 32.5 ENE 9 16 1012.2 - 0.0 - - - - - - -
29/03:30pm 32.4 ESE 9 14 1012.0 - 0.0 - - - - - - -
29/03:00pm 33.3 E 10 18 1012.3 - 0.0 - - - - - - -
29/02:30pm 33.0 E 11 19 1012.5 - 0.0 - - - - - - -
29/02:00pm 32.3 E 12 17 1012.9 - 0.0 - - - - - - -
29/01:30pm 32.1 ESE 10 16 1013.2 - 0.0 - - - - - - -
29/01:00pm 32.3 E 9 13 1013.8 - 0.0 - - - - - - -
29/12:30pm 32.4 ESE 9 15 1014.2 - 0.0 - - - - - - -
29/12:00pm 30.8 ESE 9 13 1014.6 - 0.0 - - - - - - -
29/11:30am 30.1 E 11 16 1015.0 - 0.0 - - - - - - -
29/11:00am 29.2 E 12 20 1015.4 - 0.0 - - - - - - -
29/10:30am 28.3 ESE 11 19 1015.8 - 0.0 - - - - - - -
29/10:00am 27.5 ESE 8 16 1016.0 - 0.0 - - - - - - -
29/09:30am 26.4 E 7 12 1016.1 - 0.0 - - - - - - -
29/09:00am 25.3 E 6 11 1016.1 - 0.0 - - - - - - -
29/08:30am 23.6 ESE 3 5 1016.0 - 0.0 - - - - - - -
29/08:00am 22.0 SE 2 3 1015.8 - 0.0 - - - - - - -
29/07:30am 21.0 SSE 2 2 1015.4 - 0.0 - - - - - - -
29/07:00am 21.0 SE 2 3 1015.3 - 0.0 - - - - - - -
29/06:30am 21.4 SE 2 3 1015.0 - 0.0 - - - - - - -
29/06:00am 21.6 SE 2 3 1014.9 - 0.0 - - - - - - -
29/05:30am 21.6 SE 2 3 1014.8 - 0.0 - - - - - - -
29/05:00am 21.7 SE 2 3 1014.9 - 0.0 - - - - - - -
29/04:30am 21.6 ESE 2 3 1014.6 - 0.0 - - - - - - -
29/04:00am 22.0 SSE 3 4 1014.7 - 0.0 - - - - - - -
29/03:30am 22.5 SSE 2 4 1014.5 - 0.0 - - - - - - -
29/03:00am 22.2 SE 3 4 1014.5 - 0.0 - - - - - - -
29/02:30am 22.1 SE 2 3 1014.4 - 0.0 - - - - - - -
29/02:00am 23.2 E 3 6 1014.3 - 0.0 - - - - - - -
29/01:30am 22.5 E 3 4 1014.3 - 0.0 - - - - - - -
29/01:00am 22.6 E 1 3 1014.6 - 0.0 - - - - - - -
29/12:30am 22.5 CALM 0 0 1014.5 - 0.0 - - - - - - -
29/12:00am 22.6 NE 2 3 1014.7 - 0.0 - - - - - - -
 
Date/Time
CST
Temp

°C
Wind Pressure Rain
since 9am
mm
Weather Cloud Vis
km
Sea
Height
m
Swell
Dir
 
Speed
knots
Gust
knots
hPa Trend Height
m
Period
s
Dir
28/11:30pm 22.6 NNE 2 4 1014.9 - 0.0 - - - - - - -
28/11:00pm 22.6 NE 3 4 1014.9 - 0.0 - - - - - - -

Other Formats:

Comma delimited format used in spreadsheet applications
http://www.bom.gov.au/fwo/IDD60701/IDD60701.94119.axf

JavaScript Object Notation format (JSON) in row-major order
http://www.bom.gov.au/fwo/IDD60701/IDD60701.94119.json